Time;durP1;ratioP1;P1;durP2;ratioP2;P2;SDS_P1;SDS_P2;PMS_P1;PMS_P2;Temp;Humidity;BMP_temperature;BMP_pressure;BME280_temperature;BME280_humidity;BME280_pressure;Samples;Min_cycle;Max_cycle;Signal;HPM_P1;HPM_P2
2023/07/31 00:00:11;;;;;;;0.20;0.20;;;17.00;99.90;;;;;;5048028;28;20127;-81
2023/07/31 00:02:37;;;;;;;0.10;0.10;;;17.00;99.90;;;;;;5049833;28;20044;-80
2023/07/31 00:05:02;;;;;;;0.20;0.20;;;17.00;99.90;;;;;;5046984;28;20085;-81
2023/07/31 00:07:28;;;;;;;0.10;0.10;;;17.00;99.90;;;;;;5049458;28;20056;-80
2023/07/31 00:09:54;;;;;;;0.20;0.20;;;17.00;99.90;;;;;;5049652;28;20039;-80
2023/07/31 00:12:20;;;;;;;0.10;0.10;;;16.90;99.90;;;;;;5047693;28;20045;-80
2023/07/31 00:14:46;;;;;;;0.20;0.20;;;16.90;99.90;;;;;;5048441;28;20120;-80
2023/07/31 00:17:12;;;;;;;0.10;0.10;;;17.00;99.90;;;;;;5049078;28;20060;-80
2023/07/31 00:19:37;;;;;;;0.20;0.20;;;16.90;99.90;;;;;;5053090;28;20156;-79
2023/07/31 00:22:03;;;;;;;0.20;0.20;;;16.90;99.90;;;;;;5052822;28;20037;-79
2023/07/31 00:24:29;;;;;;;0.20;0.20;;;16.90;99.90;;;;;;5053650;28;20912;-79
2023/07/31 00:26:55;;;;;;;0.10;0.10;;;16.90;99.90;;;;;;5056285;28;20060;-78
2023/07/31 00:29:20;;;;;;;0.20;0.20;;;16.90;99.90;;;;;;5054119;28;20056;-77
2023/07/31 00:31:46;;;;;;;0.20;0.20;;;16.80;99.90;;;;;;5055555;28;20044;-78
2023/07/31 00:34:12;;;;;;;0.20;0.20;;;16.80;99.90;;;;;;5054551;28;20041;-80
2023/07/31 00:36:37;;;;;;;0.20;0.20;;;16.80;99.90;;;;;;5073477;28;20071;-79
2023/07/31 00:39:04;;;;;;;0.10;0.10;;;16.70;99.90;;;;;;5051871;28;20094;-79
2023/07/31 00:41:30;;;;;;;0.10;0.10;;;16.70;99.90;;;;;;5050237;28;20060;-80
2023/07/31 00:43:56;;;;;;;0.20;0.20;;;16.50;99.90;;;;;;5048460;28;20053;-79
2023/07/31 00:46:22;;;;;;;0.20;0.20;;;16.60;99.90;;;;;;5050427;28;20131;-81
2023/07/31 00:48:48;;;;;;;0.20;0.20;;;16.40;99.90;;;;;;5051373;28;20033;-79
2023/07/31 00:51:14;;;;;;;0.10;0.10;;;16.40;99.90;;;;;;5038742;28;20052;-80
2023/07/31 00:53:41;;;;;;;0.20;0.20;;;16.20;99.90;;;;;;5049179;28;20041;-81
2023/07/31 00:56:07;;;;;;;0.20;0.20;;;16.30;99.90;;;;;;5052381;28;20045;-79
2023/07/31 00:58:33;;;;;;;0.20;0.20;;;16.20;99.90;;;;;;5051978;28;20040;-80
2023/07/31 01:00:58;;;;;;;0.10;0.10;;;16.00;99.90;;;;;;5051913;28;20045;-79
2023/07/31 01:03:24;;;;;;;0.20;0.20;;;16.00;99.90;;;;;;5050605;28;20049;-79
2023/07/31 01:06:01;;;;;;;0.20;0.20;;;16.20;99.90;;;;;;5052910;28;20063;-80
2023/07/31 01:08:32;;;;;;;0.20;0.20;;;16.00;99.90;;;;;;5075319;28;20072;-80
2023/07/31 01:11:14;;;;;;;0.20;0.20;;;15.90;99.90;;;;;;5037991;28;20045;-78
2023/07/31 01:13:40;;;;;;;0.10;0.10;;;16.10;99.90;;;;;;5049402;28;20667;-79
2023/07/31 01:16:06;;;;;;;0.20;0.20;;;16.10;99.90;;;;;;5052848;28;20443;-78
2023/07/31 01:18:31;;;;;;;0.10;0.10;;;15.90;99.90;;;;;;5050130;28;20041;-80
2023/07/31 01:21:12;;;;;;;0.10;0.10;;;16.00;99.90;;;;;;5050441;28;20060;-79
2023/07/31 01:23:49;;;;;;;0.20;0.20;;;15.80;99.90;;;;;;5040589;28;20049;-78
2023/07/31 01:26:21;;;;;;;0.10;0.10;;;15.80;99.90;;;;;;5050743;28;20045;-78
2023/07/31 01:28:50;;;;;;;0.10;0.10;;;15.90;99.90;;;;;;5049352;28;20070;-77
2023/07/31 01:31:22;;;;;;;0.10;0.10;;;16.00;99.90;;;;;;5051052;28;20052;-78
2023/07/31 01:33:49;;;;;;;0.15;0.15;;;15.90;99.90;;;;;;5053714;28;20396;-78
2023/07/31 01:36:15;;;;;;;0.10;0.10;;;15.90;99.90;;;;;;5055435;28;20098;-78
2023/07/31 01:38:40;;;;;;;0.10;0.10;;;15.90;99.90;;;;;;5053466;28;20431;-78
2023/07/31 01:41:06;;;;;;;0.17;0.17;;;15.90;99.90;;;;;;5049123;28;20107;-77
2023/07/31 01:43:32;;;;;;;0.10;0.10;;;15.80;99.90;;;;;;5049972;28;20404;-78
2023/07/31 01:45:57;;;;;;;0.20;0.20;;;15.80;99.90;;;;;;5048846;28;20135;-77
2023/07/31 01:48:23;;;;;;;0.20;0.20;;;15.80;99.90;;;;;;5049012;28;20497;-78
2023/07/31 01:50:48;;;;;;;0.10;0.10;;;16.00;99.90;;;;;;5049414;28;20059;-78
2023/07/31 01:53:14;;;;;;;0.10;0.10;;;15.90;99.90;;;;;;5081643;28;20033;-78
2023/07/31 01:55:40;;;;;;;0.10;0.10;;;15.90;99.90;;;;;;5051328;28;20052;-77
2023/07/31 01:58:06;;;;;;;0.20;0.20;;;15.80;99.90;;;;;;5048339;28;20072;-79
2023/07/31 02:00:31;;;;;;;0.10;0.10;;;15.80;99.90;;;;;;5049718;28;20036;-77
2023/07/31 02:02:57;;;;;;;0.13;0.13;;;16.00;99.90;;;;;;5039762;28;20037;-77
2023/07/31 02:05:22;;;;;;;0.10;0.10;;;16.00;99.90;;;;;;5053003;28;20049;-78
2023/07/31 02:07:48;;;;;;;0.20;0.20;;;15.90;99.90;;;;;;5048092;28;20087;-78
2023/07/31 02:10:14;;;;;;;0.10;0.10;;;15.90;99.90;;;;;;5048973;28;20040;-78
2023/07/31 02:12:39;;;;;;;0.10;0.10;;;15.90;99.90;;;;;;5049329;28;20044;-81
2023/07/31 02:15:06;;;;;;;0.10;0.10;;;15.90;99.90;;;;;;5048589;28;20044;-78
2023/07/31 02:17:31;;;;;;;0.10;0.10;;;16.00;99.90;;;;;;5049003;28;20069;-77
2023/07/31 02:19:57;;;;;;;0.13;0.13;;;15.90;99.90;;;;;;5048943;28;20087;-78
2023/07/31 02:22:23;;;;;;;0.10;0.10;;;15.90;99.90;;;;;;5082446;28;20535;-78
2023/07/31 02:24:48;;;;;;;0.20;0.20;;;16.10;99.90;;;;;;5047648;28;20488;-78
2023/07/31 02:27:14;;;;;;;0.10;0.10;;;15.90;99.90;;;;;;5049760;28;20052;-79
2023/07/31 02:29:40;;;;;;;0.17;0.17;;;16.00;99.90;;;;;;5050017;28;20029;-79
2023/07/31 02:32:06;;;;;;;0.10;0.10;;;16.00;99.90;;;;;;5048246;28;20044;-78
2023/07/31 02:34:31;;;;;;;0.20;0.20;;;16.00;99.90;;;;;;5051410;28;20037;-79
2023/07/31 02:36:57;;;;;;;0.17;0.17;;;16.00;99.90;;;;;;5049004;28;20037;-79
2023/07/31 02:39:22;;;;;;;0.10;0.10;;;16.00;99.90;;;;;;5046816;28;20094;-78
2023/07/31 02:41:48;;;;;;;0.10;0.10;;;16.00;99.90;;;;;;5047963;28;20099;-78
2023/07/31 02:44:14;;;;;;;0.10;0.10;;;16.00;99.90;;;;;;5047324;28;20084;-78
2023/07/31 02:46:40;;;;;;;0.15;0.15;;;15.90;99.90;;;;;;5048010;28;20044;-80
2023/07/31 02:49:06;;;;;;;0.20;0.20;;;15.90;99.90;;;;;;5049111;28;20683;-79
2023/07/31 02:51:31;;;;;;;0.10;0.10;;;16.00;99.90;;;;;;5049515;28;20041;-78
2023/07/31 02:53:57;;;;;;;0.10;0.10;;;16.00;99.90;;;;;;5046953;28;20454;-79
2023/07/31 02:56:23;;;;;;;0.10;0.10;;;15.90;99.90;;;;;;5049373;28;20056;-80
2023/07/31 02:58:48;;;;;;;0.20;0.20;;;16.00;99.90;;;;;;5046101;28;20045;-79
2023/07/31 03:01:14;;;;;;;0.10;0.10;;;15.90;99.90;;;;;;5048102;28;20103;-78
2023/07/31 03:03:42;;;;;;;0.20;0.20;;;16.00;99.90;;;;;;5048147;28;20385;-79
2023/07/31 03:06:07;;;;;;;0.20;0.20;;;16.00;99.90;;;;;;5048932;28;20071;-79
2023/07/31 03:08:33;;;;;;;0.10;0.10;;;16.00;99.90;;;;;;5039402;28;20042;-80
2023/07/31 03:10:59;;;;;;;0.13;0.13;;;15.60;99.90;;;;;;5048487;28;20087;-80
2023/07/31 03:13:24;;;;;;;0.10;0.10;;;15.60;99.90;;;;;;5047412;28;20491;-82
2023/07/31 03:15:50;;;;;;;0.20;0.20;;;16.10;99.90;;;;;;5048279;28;20056;-80
2023/07/31 03:18:16;;;;;;;0.20;0.20;;;16.50;99.90;;;;;;5051656;28;20068;-79
2023/07/31 03:20:43;;;;;;;0.10;0.10;;;16.30;99.90;;;;;;5051351;28;20076;-80
2023/07/31 03:23:09;;;;;;;0.10;0.10;;;15.40;99.90;;;;;;5049236;28;20051;-80
2023/07/31 03:25:35;;;;;;;0.13;0.13;;;15.10;99.90;;;;;;5048683;28;20049;-81
2023/07/31 03:28:00;;;;;;;0.20;0.20;;;15.90;99.90;;;;;;5047755;28;20396;-80
2023/07/31 03:30:26;;;;;;;0.10;0.10;;;15.10;99.90;;;;;;5048253;28;20412;-80
2023/07/31 03:32:52;;;;;;;0.10;0.10;;;15.10;99.90;;;;;;5047778;28;20041;-80
2023/07/31 03:35:18;;;;;;;0.20;0.20;;;15.30;99.90;;;;;;5048470;28;20052;-82
2023/07/31 03:37:43;;;;;;;0.10;0.10;;;15.10;99.90;;;;;;5049361;28;20051;-80
2023/07/31 03:40:10;;;;;;;0.10;0.10;;;15.90;99.90;;;;;;5047700;28;20099;-80
2023/07/31 03:42:35;;;;;;;0.10;0.10;;;15.30;99.90;;;;;;5050990;28;20148;-80
2023/07/31 03:45:01;;;;;;;0.10;0.10;;;16.30;99.90;;;;;;5056292;28;20136;-80
2023/07/31 03:47:27;;;;;;;0.20;0.20;;;15.10;99.90;;;;;;5080275;28;20056;-80
2023/07/31 03:49:52;;;;;;;0.20;0.20;;;16.40;99.90;;;;;;5047182;28;20650;-81
2023/07/31 03:52:18;;;;;;;0.20;0.20;;;16.40;99.90;;;;;;5036592;28;20136;-80
2023/07/31 03:54:47;;;;;;;0.10;0.10;;;16.30;99.90;;;;;;5052743;28;20128;-81
2023/07/31 03:57:12;;;;;;;0.10;0.10;;;15.40;99.90;;;;;;5052813;28;20072;-79
2023/07/31 03:59:39;;;;;;;0.10;0.10;;;15.20;99.90;;;;;;5049682;28;20118;-79
2023/07/31 04:02:04;;;;;;;0.10;0.10;;;15.30;99.90;;;;;;5050113;28;20397;-80
2023/07/31 04:04:30;;;;;;;0.10;0.10;;;15.20;99.90;;;;;;5051220;28;20067;-80
2023/07/31 04:06:56;;;;;;;0.13;0.13;;;15.20;99.90;;;;;;5050566;28;20037;-79
2023/07/31 04:09:21;;;;;;;0.10;0.10;;;15.40;99.90;;;;;;5050235;28;20473;-79
2023/07/31 04:11:47;;;;;;;0.20;0.20;;;15.20;99.90;;;;;;5051525;28;20128;-80
2023/07/31 04:14:13;;;;;;;0.10;0.10;;;15.90;99.90;;;;;;5051711;28;20053;-79
2023/07/31 04:16:38;;;;;;;0.10;0.10;;;15.20;99.90;;;;;;5055239;28;20036;-80
2023/07/31 04:19:04;;;;;;;0.10;0.10;;;16.20;99.90;;;;;;5063467;28;20047;-79
2023/07/31 04:21:30;;;;;;;0.20;0.20;;;16.20;99.90;;;;;;5059234;28;20041;-80
2023/07/31 04:23:56;;;;;;;0.10;0.10;;;15.90;99.90;;;;;;5047749;28;20041;-80
2023/07/31 04:26:22;;;;;;;0.10;0.10;;;16.30;99.90;;;;;;5050257;28;20049;-80
2023/07/31 04:28:47;;;;;;;0.20;0.20;;;15.30;99.90;;;;;;5052412;28;20057;-80
2023/07/31 04:31:13;;;;;;;0.10;0.10;;;15.10;99.90;;;;;;5050822;28;20090;-80
2023/07/31 04:33:39;;;;;;;0.20;0.20;;;15.20;99.90;;;;;;5033005;28;20128;-79
2023/07/31 04:36:05;;;;;;;0.17;0.17;;;16.40;99.90;;;;;;5040717;28;20041;-79
2023/07/31 04:38:30;;;;;;;0.20;0.20;;;15.50;99.90;;;;;;5050755;28;20095;-79
2023/07/31 04:40:56;;;;;;;0.20;0.20;;;15.10;99.90;;;;;;5084598;28;20048;-78
2023/07/31 04:43:22;;;;;;;0.20;0.20;;;15.80;99.90;;;;;;5051513;28;20049;-79
2023/07/31 04:45:48;;;;;;;0.20;0.20;;;15.90;99.90;;;;;;5084323;28;20519;-79
2023/07/31 04:48:14;;;;;;;0.20;0.20;;;16.10;99.90;;;;;;5044545;28;20121;-78
2023/07/31 04:50:40;;;;;;;0.10;0.10;;;16.20;99.90;;;;;;5032954;28;20430;-79
2023/07/31 04:53:05;;;;;;;0.20;0.20;;;15.70;99.90;;;;;;5072289;28;20048;-79
2023/07/31 04:55:31;;;;;;;0.20;0.20;;;16.20;99.90;;;;;;5051815;28;20041;-80
2023/07/31 04:57:59;;;;;;;0.10;0.10;;;15.90;99.90;;;;;;5051678;28;20037;-80
2023/07/31 05:00:24;;;;;;;0.10;0.10;;;15.20;99.90;;;;;;5048793;28;20037;-79
2023/07/31 05:02:50;;;;;;;0.10;0.10;;;15.90;99.90;;;;;;5052301;28;20040;-80
2023/07/31 05:05:15;;;;;;;0.13;0.13;;;15.10;99.90;;;;;;5049085;28;20037;-80
2023/07/31 05:07:41;;;;;;;0.20;0.20;;;15.30;99.90;;;;;;5049938;28;20041;-79
2023/07/31 05:10:07;;;;;;;0.20;0.20;;;16.00;99.90;;;;;;5051041;28;20028;-79
2023/07/31 05:12:33;;;;;;;0.20;0.20;;;15.20;99.90;;;;;;5049697;28;20045;-80
2023/07/31 05:14:58;;;;;;;0.10;0.10;;;15.90;99.90;;;;;;5050554;28;20381;-80
2023/07/31 05:17:24;;;;;;;0.10;0.10;;;15.20;99.90;;;;;;5054320;28;20164;-79
2023/07/31 05:19:50;;;;;;;0.20;0.20;;;16.20;99.90;;;;;;5051582;28;20048;-80
2023/07/31 05:22:15;;;;;;;0.10;0.10;;;15.70;99.90;;;;;;5047723;28;20045;-80
2023/07/31 05:24:41;;;;;;;0.20;0.20;;;15.30;99.90;;;;;;5053722;28;20472;-81
2023/07/31 05:27:07;;;;;;;0.10;0.10;;;16.50;99.90;;;;;;5055808;28;20028;-80
2023/07/31 05:29:33;;;;;;;0.10;0.10;;;15.30;99.90;;;;;;5052187;28;20040;-81
2023/07/31 05:31:59;;;;;;;0.20;0.20;;;16.40;99.90;;;;;;5079845;28;20049;-82
2023/07/31 05:34:24;;;;;;;0.20;0.20;;;15.30;99.90;;;;;;5047871;28;20061;-81
2023/07/31 05:36:50;;;;;;;0.20;0.20;;;16.20;99.90;;;;;;5051114;28;20071;-81
2023/07/31 05:39:16;;;;;;;0.20;0.20;;;15.30;99.90;;;;;;5049069;28;20041;-81
2023/07/31 05:41:41;;;;;;;0.15;0.15;;;15.30;99.90;;;;;;5048971;28;20048;-81
2023/07/31 05:44:07;;;;;;;0.20;0.20;;;16.50;99.90;;;;;;5049076;28;20135;-83
2023/07/31 05:46:33;;;;;;;0.20;0.20;;;15.70;99.90;;;;;;5035547;28;20053;-82
2023/07/31 05:49:00;;;;;;;0.20;0.20;;;16.50;99.90;;;;;;5029623;28;20435;-82
2023/07/31 05:51:27;;;;;;;0.20;0.20;;;16.50;99.90;;;;;;5032317;28;20413;-81
2023/07/31 05:53:53;;;;;;;0.10;0.10;;;15.30;99.90;;;;;;5037748;28;20653;-83
2023/07/31 05:56:18;;;;;;;0.10;0.10;;;15.30;99.90;;;;;;5033816;28;20086;-81
2023/07/31 05:58:44;;;;;;;0.20;0.20;;;15.40;99.90;;;;;;5050994;28;20127;-80
2023/07/31 06:01:10;;;;;;;0.20;0.20;;;15.30;99.90;;;;;;5048572;28;20040;-82
2023/07/31 06:03:35;;;;;;;0.20;0.20;;;16.30;99.90;;;;;;5048160;28;20126;-80
2023/07/31 06:06:01;;;;;;;0.20;0.20;;;15.50;99.90;;;;;;5050354;28;20045;-82
2023/07/31 06:08:27;;;;;;;0.20;0.20;;;16.40;99.90;;;;;;5038281;28;20029;-80
2023/07/31 06:10:52;;;;;;;0.20;0.20;;;16.40;99.90;;;;;;5049432;28;20131;-81
2023/07/31 06:13:18;;;;;;;0.20;0.20;;;15.30;99.90;;;;;;5048493;28;20056;-81
2023/07/31 06:15:44;;;;;;;0.20;0.20;;;16.50;99.90;;;;;;5049278;28;20041;-81
2023/07/31 06:18:10;;;;;;;0.10;0.10;;;15.40;99.90;;;;;;5048290;28;20052;-81
2023/07/31 06:20:36;;;;;;;0.20;0.20;;;16.60;99.90;;;;;;5051279;28;20602;-81
2023/07/31 06:23:02;;;;;;;0.20;0.20;;;16.30;99.90;;;;;;5082495;28;20106;-82
2023/07/31 06:25:28;;;;;;;0.20;0.20;;;15.40;99.90;;;;;;5050875;28;20045;-82
2023/07/31 06:27:53;;;;;;;0.20;0.20;;;16.30;99.90;;;;;;5048901;28;20047;-84
2023/07/31 06:30:19;;;;;;;0.10;0.10;;;15.80;99.90;;;;;;5051077;28;20048;-82
2023/07/31 06:32:45;;;;;;;0.20;0.20;;;15.50;99.90;;;;;;5048201;28;20084;-82
2023/07/31 06:35:10;;;;;;;0.20;0.20;;;16.60;99.90;;;;;;5047547;28;20041;-82
2023/07/31 06:37:36;;;;;;;0.17;0.17;;;15.50;99.90;;;;;;5045477;28;20078;-80
2023/07/31 06:40:02;;;;;;;0.17;0.17;;;16.70;99.90;;;;;;5047531;28;20088;-80
2023/07/31 06:42:27;;;;;;;0.20;0.20;;;16.80;99.90;;;;;;5046331;28;20396;-89
2023/07/31 06:44:53;;;;;;;0.13;0.13;;;16.50;99.90;;;;;;5053381;28;20496;-92
2023/07/31 06:47:19;;;;;;;0.20;0.20;;;16.80;99.90;;;;;;5055596;28;20076;-93
2023/07/31 06:49:45;;;;;;;0.20;0.20;;;15.70;99.90;;;;;;5061994;28;20037;-92
2023/07/31 06:52:11;;;;;;;0.20;0.20;;;16.30;99.90;;;;;;5054002;28;20090;-92
2023/07/31 06:54:36;;;;;;;0.10;0.10;;;15.70;99.90;;;;;;5061524;28;20025;-88
2023/07/31 06:57:03;;;;;;;0.20;0.20;;;16.10;99.90;;;;;;5057501;28;20041;-96
2023/07/31 06:59:29;;;;;;;0.13;0.13;;;16.50;99.90;;;;;;5134258;22;20079;-93
2023/07/31 07:01:54;;;;;;;0.20;0.20;;;16.80;99.90;;;;;;5055286;28;20119;-95
2023/07/31 07:04:20;;;;;;;0.13;0.13;;;17.00;99.90;;;;;;5074067;28;20040;-89
2023/07/31 07:06:46;;;;;;;0.10;0.10;;;16.90;99.90;;;;;;5055926;28;20044;-92
2023/07/31 07:09:12;;;;;;;0.10;0.10;;;16.40;99.90;;;;;;5053581;28;20488;-90
2023/07/31 07:11:37;;;;;;;0.10;0.10;;;16.70;99.90;;;;;;5052263;28;20041;-88
2023/07/31 07:14:03;;;;;;;0.20;0.20;;;17.10;99.90;;;;;;5070757;28;20101;-89
2023/07/31 07:16:29;;;;;;;0.20;0.20;;;16.20;99.90;;;;;;5051993;28;20056;-89
2023/07/31 07:18:54;;;;;;;0.20;0.20;;;17.20;99.90;;;;;;5067656;28;20048;-88
2023/07/31 07:21:20;;;;;;;0.10;0.10;;;17.40;99.90;;;;;;5052477;28;20226;-89
2023/07/31 07:23:46;;;;;;;0.20;0.20;;;17.00;99.90;;;;;;5067062;28;20083;-93
2023/07/31 07:26:11;;;;;;;0.10;0.10;;;16.40;99.90;;;;;;5063456;28;20553;-87
2023/07/31 07:28:37;;;;;;;0.10;0.10;;;16.50;99.90;;;;;;5067899;28;20033;-85
2023/07/31 07:31:03;;;;;;;0.10;0.10;;;16.80;99.90;;;;;;5052588;28;20509;-86
2023/07/31 07:33:29;;;;;;;0.20;0.20;;;16.20;99.90;;;;;;5036705;28;20524;-87
2023/07/31 07:35:54;;;;;;;0.63;0.35;;;17.20;99.90;;;;;;5055189;28;20037;-85
2023/07/31 07:38:20;;;;;;;0.10;0.10;;;16.20;99.90;;;;;;5061798;28;20036;-86
2023/07/31 07:40:50;;;;;;;0.20;0.20;;;17.20;99.90;;;;;;5052676;28;20056;-86
2023/07/31 07:43:16;;;;;;;0.20;0.20;;;16.50;99.90;;;;;;5052691;28;20037;-86
2023/07/31 07:45:41;;;;;;;0.10;0.10;;;17.10;99.90;;;;;;5051655;28;20048;-86
2023/07/31 07:48:07;;;;;;;0.20;0.20;;;17.30;99.90;;;;;;5048882;28;20047;-87
2023/07/31 07:50:33;;;;;;;0.20;0.20;;;17.30;99.90;;;;;;5048274;28;20380;-89
2023/07/31 07:52:59;;;;;;;0.20;0.20;;;17.50;99.90;;;;;;5054350;28;20036;-91
2023/07/31 07:55:24;;;;;;;0.20;0.20;;;17.40;99.90;;;;;;5052334;28;20047;-85
2023/07/31 07:57:50;;;;;;;0.17;0.17;;;16.90;99.90;;;;;;5048698;28;20091;-90
2023/07/31 08:00:17;;;;;;;0.20;0.20;;;17.10;99.90;;;;;;5067589;28;20076;-88
2023/07/31 08:02:43;;;;;;;0.20;0.20;;;17.10;99.90;;;;;;5049331;28;20127;-86
2023/07/31 08:05:09;;;;;;;0.10;0.10;;;16.50;99.90;;;;;;5050380;28;20041;-86
2023/07/31 08:07:35;;;;;;;0.10;0.10;;;16.30;99.90;;;;;;5067087;28;20041;-90
2023/07/31 08:10:01;;;;;;;0.10;0.10;;;16.50;99.90;;;;;;5052119;28;20037;-90
2023/07/31 08:12:26;;;;;;;0.20;0.20;;;17.10;99.90;;;;;;5067195;28;20051;-85
2023/07/31 08:14:52;;;;;;;0.20;0.20;;;16.50;99.90;;;;;;5070625;28;20044;-86
2023/07/31 08:17:18;;;;;;;0.20;0.20;;;17.20;99.90;;;;;;5070898;28;20484;-88
2023/07/31 08:19:44;;;;;;;0.10;0.10;;;16.50;99.90;;;;;;5046607;28;20067;-87
2023/07/31 08:22:10;;;;;;;0.10;0.10;;;17.40;99.90;;;;;;5035196;28;20244;-84
2023/07/31 08:24:36;;;;;;;0.17;0.17;;;17.50;99.90;;;;;;5059222;28;20552;-86
2023/07/31 08:27:01;;;;;;;0.20;0.20;;;17.30;99.90;;;;;;5053157;28;20135;-87
2023/07/31 08:29:27;;;;;;;0.20;0.20;;;17.50;99.90;;;;;;5070059;28;20051;-85
2023/07/31 08:31:53;;;;;;;0.17;0.17;;;16.60;99.90;;;;;;5051281;28;20396;-86
2023/07/31 08:34:18;;;;;;;0.10;0.10;;;16.90;99.90;;;;;;5065969;28;20287;-86
2023/07/31 08:36:44;;;;;;;0.20;0.20;;;17.60;99.90;;;;;;5041540;28;20119;-91
2023/07/31 08:39:10;;;;;;;0.20;0.20;;;18.00;99.90;;;;;;5044226;28;20060;-86
2023/07/31 08:41:39;;;;;;;0.10;0.10;;;16.50;99.90;;;;;;5058015;28;20116;-86
2023/07/31 08:44:06;;;;;;;0.15;0.15;;;17.20;99.90;;;;;;5052419;28;20040;-86
2023/07/31 08:46:33;;;;;;;0.15;0.15;;;17.50;99.90;;;;;;5053026;28;20052;-86
2023/07/31 08:48:59;;;;;;;0.10;0.10;;;16.60;99.90;;;;;;5069547;28;20044;-88
2023/07/31 08:51:25;;;;;;;0.10;0.10;;;17.80;99.90;;;;;;5073883;28;20083;-89
2023/07/31 08:53:53;;;;;;;0.10;0.10;;;17.80;99.90;;;;;;5077794;28;20037;-89
2023/07/31 08:56:19;;;;;;;0.20;0.20;;;17.70;99.90;;;;;;5074050;28;20079;-86
2023/07/31 08:58:47;;;;;;;0.10;0.10;;;17.70;99.90;;;;;;5071242;28;20403;-85
2023/07/31 09:01:13;;;;;;;0.10;0.10;;;17.00;99.90;;;;;;5073881;28;20057;-87
2023/07/31 09:03:40;;;;;;;0.10;0.10;;;16.70;99.90;;;;;;5051759;28;20028;-86
2023/07/31 09:06:07;;;;;;;0.15;0.15;;;17.90;99.90;;;;;;5055747;28;20750;-86
2023/07/31 09:08:33;;;;;;;0.10;0.10;;;16.70;99.90;;;;;;5055345;28;20467;-88
2023/07/31 09:11:01;;;;;;;0.20;0.20;;;16.80;99.90;;;;;;5052488;28;20040;-86
2023/07/31 09:13:29;;;;;;;0.20;0.20;;;17.10;99.90;;;;;;5053154;28;20045;-88
2023/07/31 09:15:55;;;;;;;0.20;0.20;;;17.30;99.90;;;;;;5053646;28;20476;-86
2023/07/31 09:18:22;;;;;;;0.20;0.20;;;17.90;99.90;;;;;;5054505;28;20045;-89
2023/07/31 09:21:04;;;;;;;0.20;0.20;;;18.00;99.90;;;;;;5050759;28;20311;-86
2023/07/31 09:23:52;;;;;;;0.20;0.20;;;17.00;99.90;;;;;;5067359;28;20076;-89
2023/07/31 09:26:35;;;;;;;0.20;0.20;;;17.00;99.90;;;;;;5052420;28;20048;-88
2023/07/31 09:29:05;;;;;;;0.20;0.20;;;17.70;99.90;;;;;;5035840;28;20052;-90
2023/07/31 09:31:44;;;;;;;0.10;0.10;;;18.00;99.90;;;;;;5035800;28;20132;-90
2023/07/31 09:34:16;;;;;;;0.10;0.10;;;17.10;99.90;;;;;;5061467;28;20498;-90
2023/07/31 09:36:47;;;;;;;0.13;0.13;;;18.20;99.90;;;;;;5051405;28;20449;-90
2023/07/31 09:39:13;;;;;;;0.20;0.20;;;17.80;99.90;;;;;;5053309;28;20048;-87
2023/07/31 09:41:42;;;;;;;0.20;0.20;;;17.80;99.90;;;;;;5050255;28;20041;-87
2023/07/31 09:44:07;;;;;;;0.20;0.20;;;17.20;99.90;;;;;;5066103;28;20041;-87
2023/07/31 09:46:37;;;;;;;0.20;0.20;;;17.40;99.90;;;;;;5054279;28;20471;-85
2023/07/31 09:49:13;;;;;;;0.20;0.20;;;17.60;99.90;;;;;;5065352;28;20503;-86
2023/07/31 09:51:41;;;;;;;0.20;0.20;;;18.20;99.90;;;;;;5054233;28;20064;-86
2023/07/31 09:54:14;;;;;;;0.20;0.20;;;17.90;99.90;;;;;;5051608;28;20052;-88
2023/07/31 09:56:48;;;;;;;0.10;0.10;;;18.40;99.90;;;;;;5054804;28;20052;-86
2023/07/31 09:59:16;;;;;;;0.10;0.10;;;17.70;99.90;;;;;;5053026;28;20048;-87
2023/07/31 10:01:43;;;;;;;0.10;0.10;;;18.30;99.90;;;;;;5053357;28;20056;-85
2023/07/31 10:04:10;;;;;;;0.10;0.10;;;18.40;99.90;;;;;;5048454;28;20086;-86
2023/07/31 10:06:37;;;;;;;0.10;0.10;;;17.60;99.90;;;;;;5052481;28;20128;-86
2023/07/31 10:09:07;;;;;;;0.20;0.20;;;18.30;99.90;;;;;;5050133;28;20038;-85
2023/07/31 10:11:50;;;;;;;0.10;0.10;;;18.50;99.90;;;;;;5037850;28;20104;-88
2023/07/31 10:14:20;;;;;;;0.20;0.20;;;17.50;99.90;;;;;;5050972;28;20044;-88
2023/07/31 10:16:45;;;;;;;0.20;0.20;;;18.50;99.90;;;;;;5069392;28;20041;-86
2023/07/31 10:19:11;;;;;;;0.10;0.10;;;17.60;99.90;;;;;;5052581;28;20067;-87
2023/07/31 10:21:38;;;;;;;0.10;0.10;;;17.60;99.90;;;;;;5053427;28;20484;-85
2023/07/31 10:24:04;;;;;;;0.20;0.20;;;18.40;99.90;;;;;;5068538;28;20094;-86
2023/07/31 10:26:32;;;;;;;0.10;0.10;;;17.70;99.90;;;;;;5053632;28;20040;-86
2023/07/31 10:28:59;;;;;;;0.10;0.10;;;18.70;99.90;;;;;;5052927;28;20048;-85
2023/07/31 10:31:25;;;;;;;0.10;0.10;;;18.60;99.90;;;;;;5070494;28;20067;-85
2023/07/31 10:33:52;;;;;;;0.20;0.20;;;18.60;99.90;;;;;;5070360;28;20508;-85
2023/07/31 10:36:19;;;;;;;0.10;0.10;;;18.80;99.90;;;;;;5052488;28;20048;-86
2023/07/31 10:38:46;;;;;;;0.20;0.20;;;18.40;99.90;;;;;;5049695;28;20494;-85
2023/07/31 10:41:12;;;;;;;0.20;0.20;;;18.80;99.90;;;;;;5070598;28;20040;-87
2023/07/31 10:43:38;;;;;;;0.10;0.10;;;18.80;99.90;;;;;;5052622;28;20601;-86
2023/07/31 10:46:14;;;;;;;0.20;0.20;;;18.90;99.90;;;;;;5053313;28;20045;-79
2023/07/31 10:48:41;;;;;;;0.20;0.20;;;18.60;99.90;;;;;;5052662;28;20044;-84
2023/07/31 10:51:13;;;;;;;0.20;0.20;;;17.70;99.90;;;;;;5070916;28;20045;-83
2023/07/31 10:53:40;;;;;;;0.20;0.20;;;19.00;99.90;;;;;;5049488;28;20068;-83
2023/07/31 10:56:09;;;;;;;0.10;0.10;;;18.90;99.90;;;;;;5051998;28;20131;-84
2023/07/31 10:58:35;;;;;;;0.13;0.13;;;17.90;99.90;;;;;;5051488;28;20132;-83
2023/07/31 11:01:04;;;;;;;0.20;0.20;;;19.20;99.90;;;;;;5070329;28;20044;-84
2023/07/31 11:03:48;;;;;;;0.10;0.10;;;17.80;99.90;;;;;;5043021;28;20124;-85
2023/07/31 11:06:15;;;;;;;0.10;0.10;;;17.90;99.90;;;;;;5069722;28;20471;-84
2023/07/31 11:08:46;;;;;;;0.13;0.13;;;18.60;99.90;;;;;;5049080;28;20084;-85
2023/07/31 11:11:14;;;;;;;0.28;0.28;;;19.30;99.90;;;;;;5048207;28;20071;-84
2023/07/31 11:13:52;;;;;;;0.20;0.20;;;18.20;99.90;;;;;;5040254;28;20077;-87
2023/07/31 11:16:19;;;;;;;0.20;0.20;;;18.90;99.90;;;;;;5043311;28;20064;-86
2023/07/31 11:18:47;;;;;;;0.13;0.13;;;18.10;99.90;;;;;;5044724;28;20559;-84
2023/07/31 11:21:23;;;;;;;0.20;0.20;;;19.50;99.90;;;;;;5067302;28;20048;-86
2023/07/31 11:23:50;;;;;;;0.20;0.20;;;19.10;99.90;;;;;;5043606;28;20041;-85
2023/07/31 11:26:17;;;;;;;0.10;0.10;;;19.40;99.90;;;;;;5042601;28;20317;-84
2023/07/31 11:28:46;;;;;;;0.10;0.10;;;18.30;99.90;;;;;;5049079;28;20059;-84
2023/07/31 11:31:11;;;;;;;0.15;0.15;;;19.30;99.90;;;;;;5055710;28;20053;-85
2023/07/31 11:33:37;;;;;;;0.20;0.20;;;18.20;99.90;;;;;;5037160;28;20470;-84
2023/07/31 11:36:04;;;;;;;0.10;0.10;;;18.90;99.90;;;;;;5044530;28;20079;-83
2023/07/31 11:38:32;;;;;;;0.15;0.15;;;18.10;99.90;;;;;;5031717;28;20033;-84
2023/07/31 11:41:02;;;;;;;0.20;0.20;;;18.10;99.90;;;;;;5057696;28;20082;-84
2023/07/31 11:43:29;;;;;;;0.20;0.20;;;18.60;99.90;;;;;;5065669;28;20036;-86
2023/07/31 11:45:56;;;;;;;0.10;0.10;;;19.20;99.90;;;;;;5056965;28;20048;-84
2023/07/31 11:48:24;;;;;;;0.20;0.20;;;18.20;99.90;;;;;;5032871;28;20049;-83
2023/07/31 11:50:51;;;;;;;0.17;0.17;;;18.90;99.90;;;;;;5037693;28;20546;-83
2023/07/31 11:53:21;;;;;;;0.20;0.20;;;18.10;99.90;;;;;;5040767;28;20055;-83
2023/07/31 11:55:48;;;;;;;0.20;0.20;;;19.10;99.90;;;;;;5049890;28;20055;-79
2023/07/31 11:58:16;;;;;;;0.20;0.20;;;18.30;99.90;;;;;;5068336;28;20063;-83
2023/07/31 12:00:42;;;;;;;0.20;0.20;;;18.20;99.90;;;;;;5050405;28;20053;-83
2023/07/31 12:03:08;;;;;;;0.20;0.20;;;18.80;99.90;;;;;;5048062;28;20071;-85
2023/07/31 12:05:33;;;;;;;0.15;0.15;;;19.30;99.90;;;;;;5068449;28;20072;-84
2023/07/31 12:07:59;;;;;;;0.20;0.20;;;19.20;99.90;;;;;;5050268;28;20082;-85
2023/07/31 12:10:27;;;;;;;0.20;0.20;;;19.40;99.90;;;;;;5048274;28;20033;-87
2023/07/31 12:13:04;;;;;;;0.20;0.20;;;19.40;99.90;;;;;;5073566;28;20086;-87
2023/07/31 12:15:41;;;;;;;0.20;0.20;;;18.30;99.90;;;;;;5054018;28;20044;-87
2023/07/31 12:18:12;;;;;;;0.15;0.15;;;19.50;99.90;;;;;;5053479;28;20395;-84
2023/07/31 12:20:58;;;;;;;0.20;0.20;;;19.20;99.90;;;;;;5054904;28;20036;-84
2023/07/31 12:23:28;;;;;;;0.20;0.20;;;19.50;99.90;;;;;;5052925;28;20040;-84
2023/07/31 12:26:07;;;;;;;0.20;0.20;;;18.40;99.90;;;;;;5069137;28;20041;-84
2023/07/31 12:28:54;;;;;;;0.10;0.10;;;19.20;99.90;;;;;;5069941;28;20072;-84
2023/07/31 12:31:25;;;;;;;0.20;0.20;;;19.30;99.90;;;;;;5050487;28;20036;-82
2023/07/31 12:33:51;;;;;;;0.20;0.20;;;19.30;99.90;;;;;;5070554;28;20045;-84
2023/07/31 12:36:20;;;;;;;0.10;0.10;;;18.50;99.90;;;;;;5051515;28;20043;-86
2023/07/31 12:38:46;;;;;;;0.20;0.20;;;19.10;99.90;;;;;;5041615;28;20099;-84
2023/07/31 12:41:12;;;;;;;0.20;0.20;;;19.50;99.90;;;;;;5037237;28;20049;-86
2023/07/31 12:43:40;;;;;;;0.20;0.20;;;19.60;99.90;;;;;;5046288;28;20041;-87
2023/07/31 12:46:07;;;;;;;0.20;0.20;;;19.60;99.90;;;;;;5065548;28;20484;-89